Ulianopolis, Brazil
Current Conditions -  °F | °C
As of 3:00 PM on Sunday 25 Jan 2015 (Local Time) from SBIZ Reporting Station
Thunderstorm Thunderstorm  
Wind Chill: 81°   Ceiling: 2000
Heat Index: NA   Visibility: 6mi
Dew Point: NA   Wind: 6mph
Humidity: NA   Direction: 90°E
Pressure: 29.83"   Gusts: 23mph
Location:  3.74°S, 47.49°W
Report Text: SBIZ 251800Z 09005G20KT 9999 TS VCSH FEW008 BKN020 FEW025CB 27/23 Q1010
Loading
Personal Weather Stations






























Interactive Weather Map New forecast layout! Learn more

10-Day Weather Forecast

Advertisements
Track Severe Weather on mobile